sensor_id;sensor_type;location;lat;lon;timestamp;temperature;humidity
22917;DHT22;11624;53.250;7.456;2022-12-11T00:01:08;4.94;63.63
22917;DHT22;11624;53.250;7.456;2022-12-11T00:03:36;4.94;63.89
22917;DHT22;11624;53.250;7.456;2022-12-11T00:06:06;5.02;63.69
22917;DHT22;11624;53.250;7.456;2022-12-11T00:08:35;4.97;63.69
22917;DHT22;11624;53.250;7.456;2022-12-11T00:11:04;4.90;63.81
22917;DHT22;11624;53.250;7.456;2022-12-11T00:13:33;4.80;64.05
22917;DHT22;11624;53.250;7.456;2022-12-11T00:16:01;4.69;64.24
22917;DHT22;11624;53.250;7.456;2022-12-11T00:18:29;4.66;64.32
22917;DHT22;11624;53.250;7.456;2022-12-11T00:20:59;4.72;64.24
22917;DHT22;11624;53.250;7.456;2022-12-11T00:23:28;4.62;64.26
22917;DHT22;11624;53.250;7.456;2022-12-11T00:25:56;4.58;64.60
22917;DHT22;11624;53.250;7.456;2022-12-11T00:28:24;4.69;64.24
22917;DHT22;11624;53.250;7.456;2022-12-11T00:30:54;4.78;64.14
22917;DHT22;11624;53.250;7.456;2022-12-11T00:33:22;4.87;63.98
22917;DHT22;11624;53.250;7.456;2022-12-11T00:35:50;4.95;63.89
22917;DHT22;11624;53.250;7.456;2022-12-11T00:38:20;5.02;63.73
22917;DHT22;11624;53.250;7.456;2022-12-11T00:40:48;5.03;63.60
22917;DHT22;11624;53.250;7.456;2022-12-11T00:43:16;4.92;63.67
22917;DHT22;11624;53.250;7.456;2022-12-11T00:45:46;4.82;64.02
22917;DHT22;11624;53.250;7.456;2022-12-11T00:48:15;4.79;64.18
22917;DHT22;11624;53.250;7.456;2022-12-11T00:50:43;4.83;64.08
22917;DHT22;11624;53.250;7.456;2022-12-11T00:53:11;4.88;63.87
22917;DHT22;11624;53.250;7.456;2022-12-11T00:55:41;4.84;63.94
22917;DHT22;11624;53.250;7.456;2022-12-11T00:58:10;4.82;64.05
22917;DHT22;11624;53.250;7.456;2022-12-11T01:00:39;4.66;64.27
22917;DHT22;11624;53.250;7.456;2022-12-11T01:03:07;4.62;64.16
22917;DHT22;11624;53.250;7.456;2022-12-11T01:05:38;4.65;64.30
22917;DHT22;11624;53.250;7.456;2022-12-11T01:08:06;4.73;64.17
22917;DHT22;11624;53.250;7.456;2022-12-11T01:10:34;4.61;64.36
22917;DHT22;11624;53.250;7.456;2022-12-11T01:13:03;4.52;64.62
22917;DHT22;11624;53.250;7.456;2022-12-11T01:15:34;4.53;64.73
22917;DHT22;11624;53.250;7.456;2022-12-11T01:18:08;4.63;64.41
22917;DHT22;11624;53.250;7.456;2022-12-11T01:20:39;4.56;64.59
22917;DHT22;11624;53.250;7.456;2022-12-11T01:23:09;4.63;64.44
22917;DHT22;11624;53.250;7.456;2022-12-11T01:25:38;4.51;64.43
22917;DHT22;11624;53.250;7.456;2022-12-11T01:28:07;4.34;65.06
22917;DHT22;11624;53.250;7.456;2022-12-11T01:30:36;4.43;64.72
22917;DHT22;11624;53.250;7.456;2022-12-11T01:33:04;4.32;64.93
22917;DHT22;11624;53.250;7.456;2022-12-11T01:35:32;4.42;64.54
22917;DHT22;11624;53.250;7.456;2022-12-11T01:38:02;4.43;64.59
22917;DHT22;11624;53.250;7.456;2022-12-11T01:40:30;4.33;64.63
22917;DHT22;11624;53.250;7.456;2022-12-11T01:42:58;4.28;65.01
22917;DHT22;11624;53.250;7.456;2022-12-11T01:45:38;4.44;64.21
22917;DHT22;11624;53.250;7.456;2022-12-11T01:48:10;4.50;64.33
22917;DHT22;11624;53.250;7.456;2022-12-11T01:50:43;4.46;64.49
22917;DHT22;11624;53.250;7.456;2022-12-11T01:53:18;4.52;64.32
22917;DHT22;11624;53.250;7.456;2022-12-11T01:55:47;4.56;64.40
22917;DHT22;11624;53.250;7.456;2022-12-11T01:58:17;4.53;64.54
22917;DHT22;11624;53.250;7.456;2022-12-11T02:00:45;4.58;64.47
22917;DHT22;11624;53.250;7.456;2022-12-11T02:03:14;4.59;64.38
22917;DHT22;11624;53.250;7.456;2022-12-11T02:05:42;4.57;64.43
22917;DHT22;11624;53.250;7.456;2022-12-11T02:08:10;4.43;64.88
22917;DHT22;11624;53.250;7.456;2022-12-11T02:10:47;4.20;65.27
22917;DHT22;11624;53.250;7.456;2022-12-11T02:13:20;4.26;64.71
22917;DHT22;11624;53.250;7.456;2022-12-11T02:15:54;4.31;64.95
22917;DHT22;11624;53.250;7.456;2022-12-11T02:18:30;4.31;65.07
22917;DHT22;11624;53.250;7.456;2022-12-11T02:21:06;4.31;64.91
22917;DHT22;11624;53.250;7.456;2022-12-11T02:23:52;4.37;64.65
22917;DHT22;11624;53.250;7.456;2022-12-11T02:26:46;4.37;64.66
22917;DHT22;11624;53.250;7.456;2022-12-11T02:29:22;4.29;64.79
22917;DHT22;11624;53.250;7.456;2022-12-11T02:31:56;4.31;64.82
22917;DHT22;11624;53.250;7.456;2022-12-11T02:34:31;4.35;64.82
22917;DHT22;11624;53.250;7.456;2022-12-11T02:37:05;4.35;64.79
22917;DHT22;11624;53.250;7.456;2022-12-11T02:39:35;4.35;64.56
22917;DHT22;11624;53.250;7.456;2022-12-11T02:42:05;4.38;64.59
22917;DHT22;11624;53.250;7.456;2022-12-11T02:44:37;4.34;64.76
22917;DHT22;11624;53.250;7.456;2022-12-11T02:47:08;4.36;64.50
22917;DHT22;11624;53.250;7.456;2022-12-11T02:49:39;4.30;64.76
22917;DHT22;11624;53.250;7.456;2022-12-11T02:52:10;4.23;64.92
22917;DHT22;11624;53.250;7.456;2022-12-11T02:54:41;4.28;64.81
22917;DHT22;11624;53.250;7.456;2022-12-11T02:57:13;4.20;64.84
22917;DHT22;11624;53.250;7.456;2022-12-11T02:59:45;4.21;64.75
22917;DHT22;11624;53.250;7.456;2022-12-11T03:02:14;4.28;64.56
22917;DHT22;11624;53.250;7.456;2022-12-11T03:04:45;4.18;64.37
22917;DHT22;11624;53.250;7.456;2022-12-11T03:07:17;4.16;64.57
22917;DHT22;11624;53.250;7.456;2022-12-11T03:09:46;4.03;64.99
22917;DHT22;11624;53.250;7.456;2022-12-11T03:12:19;3.99;64.83
22917;DHT22;11624;53.250;7.456;2022-12-11T03:14:49;4.05;64.84
22917;DHT22;11624;53.250;7.456;2022-12-11T03:17:20;4.09;64.83
22917;DHT22;11624;53.250;7.456;2022-12-11T03:19:54;4.15;64.59
22917;DHT22;11624;53.250;7.456;2022-12-11T03:22:29;4.18;64.28
22917;DHT22;11624;53.250;7.456;2022-12-11T03:25:02;4.18;64.51
22917;DHT22;11624;53.250;7.456;2022-12-11T03:27:35;4.07;64.90
22917;DHT22;11624;53.250;7.456;2022-12-11T03:30:10;4.15;64.67
22917;DHT22;11624;53.250;7.456;2022-12-11T03:32:43;4.16;64.38
22917;DHT22;11624;53.250;7.456;2022-12-11T03:35:18;4.24;64.43
22917;DHT22;11624;53.250;7.456;2022-12-11T03:37:48;4.16;64.63
22917;DHT22;11624;53.250;7.456;2022-12-11T03:40:20;4.18;64.79
22917;DHT22;11624;53.250;7.456;2022-12-11T03:42:51;4.26;64.79
22917;DHT22;11624;53.250;7.456;2022-12-11T03:45:21;4.38;64.57
22917;DHT22;11624;53.250;7.456;2022-12-11T03:47:52;4.37;64.62
22917;DHT22;11624;53.250;7.456;2022-12-11T03:50:22;4.46;64.34
22917;DHT22;11624;53.250;7.456;2022-12-11T03:52:53;4.52;64.27
22917;DHT22;11624;53.250;7.456;2022-12-11T03:55:22;4.57;64.24
22917;DHT22;11624;53.250;7.456;2022-12-11T03:57:51;4.52;64.30
22917;DHT22;11624;53.250;7.456;2022-12-11T04:00:21;4.46;64.14
22917;DHT22;11624;53.250;7.456;2022-12-11T04:02:49;4.53;64.27
22917;DHT22;11624;53.250;7.456;2022-12-11T04:05:39;4.44;64.43
22917;DHT22;11624;53.250;7.456;2022-12-11T04:08:07;4.47;64.54
22917;DHT22;11624;53.250;7.456;2022-12-11T04:10:35;4.46;64.53
22917;DHT22;11624;53.250;7.456;2022-12-11T04:13:03;4.41;64.71
22917;DHT22;11624;53.250;7.456;2022-12-11T04:15:32;4.50;64.66
22917;DHT22;11624;53.250;7.456;2022-12-11T04:18:00;4.62;64.40
22917;DHT22;11624;53.250;7.456;2022-12-11T04:20:45;4.68;64.17
22917;DHT22;11624;53.250;7.456;2022-12-11T04:23:31;4.75;64.13
22917;DHT22;11624;53.250;7.456;2022-12-11T04:26:18;4.88;63.36
22917;DHT22;11624;53.250;7.456;2022-12-11T04:28:47;4.84;63.66
22917;DHT22;11624;53.250;7.456;2022-12-11T04:31:18;5.00;62.90
22917;DHT22;11624;53.250;7.456;2022-12-11T04:33:47;5.03;62.93
22917;DHT22;11624;53.250;7.456;2022-12-11T04:36:16;5.13;62.90
22917;DHT22;11624;53.250;7.456;2022-12-11T04:38:44;5.00;63.53
22917;DHT22;11624;53.250;7.456;2022-12-11T04:41:14;5.01;63.78
22917;DHT22;11624;53.250;7.456;2022-12-11T04:43:42;5.03;63.68
22917;DHT22;11624;53.250;7.456;2022-12-11T04:46:12;4.91;63.85
22917;DHT22;11624;53.250;7.456;2022-12-11T04:48:42;4.88;64.03
22917;DHT22;11624;53.250;7.456;2022-12-11T04:51:11;4.97;63.87
22917;DHT22;11624;53.250;7.456;2022-12-11T04:53:39;5.00;63.80
22917;DHT22;11624;53.250;7.456;2022-12-11T04:56:08;5.02;63.69
22917;DHT22;11624;53.250;7.456;2022-12-11T04:58:38;4.90;63.82
22917;DHT22;11624;53.250;7.456;2022-12-11T05:01:07;4.79;64.07
22917;DHT22;11624;53.250;7.456;2022-12-11T05:03:36;4.79;64.04
22917;DHT22;11624;53.250;7.456;2022-12-11T05:06:06;4.83;63.96
22917;DHT22;11624;53.250;7.456;2022-12-11T05:08:36;4.84;63.92
22917;DHT22;11624;53.250;7.456;2022-12-11T05:11:07;4.72;64.34
22917;DHT22;11624;53.250;7.456;2022-12-11T05:13:36;4.98;63.42
22917;DHT22;11624;53.250;7.456;2022-12-11T05:16:05;5.10;63.13
22917;DHT22;11624;53.250;7.456;2022-12-11T05:18:34;5.24;62.61
22917;DHT22;11624;53.250;7.456;2022-12-11T05:21:06;5.21;62.61
22917;DHT22;11624;53.250;7.456;2022-12-11T05:23:34;5.09;63.10
22917;DHT22;11624;53.250;7.456;2022-12-11T05:26:05;5.08;63.21
22917;DHT22;11624;53.250;7.456;2022-12-11T05:28:36;5.15;63.00
22917;DHT22;11624;53.250;7.456;2022-12-11T05:31:06;5.18;62.60
22917;DHT22;11624;53.250;7.456;2022-12-11T05:33:34;5.17;62.89
22917;DHT22;11624;53.250;7.456;2022-12-11T05:36:05;5.20;62.71
22917;DHT22;11624;53.250;7.456;2022-12-11T05:38:33;5.15;62.77
22917;DHT22;11624;53.250;7.456;2022-12-11T05:41:03;5.05;62.92
22917;DHT22;11624;53.250;7.456;2022-12-11T05:43:33;4.95;63.42
22917;DHT22;11624;53.250;7.456;2022-12-11T05:46:08;5.03;63.09
22917;DHT22;11624;53.250;7.456;2022-12-11T05:48:37;5.13;62.87
22917;DHT22;11624;53.250;7.456;2022-12-11T05:51:07;5.19;62.79
22917;DHT22;11624;53.250;7.456;2022-12-11T05:53:36;5.22;62.73
22917;DHT22;11624;53.250;7.456;2022-12-11T05:56:06;5.24;62.80
22917;DHT22;11624;53.250;7.456;2022-12-11T05:58:35;5.26;62.63
22917;DHT22;11624;53.250;7.456;2022-12-11T06:01:06;5.27;62.60
22917;DHT22;11624;53.250;7.456;2022-12-11T06:03:34;5.32;62.60
22917;DHT22;11624;53.250;7.456;2022-12-11T06:06:03;5.22;62.85
22917;DHT22;11624;53.250;7.456;2022-12-11T06:08:33;5.30;62.74
22917;DHT22;11624;53.250;7.456;2022-12-11T06:11:02;5.41;62.56
22917;DHT22;11624;53.250;7.456;2022-12-11T06:13:31;5.50;62.44
22917;DHT22;11624;53.250;7.456;2022-12-11T06:16:00;5.49;62.33
22917;DHT22;11624;53.250;7.456;2022-12-11T06:18:29;5.46;62.37
22917;DHT22;11624;53.250;7.456;2022-12-11T06:20:57;5.53;62.28
22917;DHT22;11624;53.250;7.456;2022-12-11T06:23:25;5.51;62.27
22917;DHT22;11624;53.250;7.456;2022-12-11T06:25:55;5.55;62.17
22917;DHT22;11624;53.250;7.456;2022-12-11T06:28:23;5.59;62.16
22917;DHT22;11624;53.250;7.456;2022-12-11T06:30:51;5.48;62.40
22917;DHT22;11624;53.250;7.456;2022-12-11T06:33:19;5.19;63.29
22917;DHT22;11624;53.250;7.456;2022-12-11T06:35:47;5.11;63.51
22917;DHT22;11624;53.250;7.456;2022-12-11T06:38:15;5.15;63.47
22917;DHT22;11624;53.250;7.456;2022-12-11T06:40:43;5.05;63.61
22917;DHT22;11624;53.250;7.456;2022-12-11T06:43:12;5.01;63.64
22917;DHT22;11624;53.250;7.456;2022-12-11T06:45:40;4.94;63.77
22917;DHT22;11624;53.250;7.456;2022-12-11T06:48:08;4.95;63.83
22917;DHT22;11624;53.250;7.456;2022-12-11T06:50:37;4.96;63.89
22917;DHT22;11624;53.250;7.456;2022-12-11T06:53:05;4.84;64.12
22917;DHT22;11624;53.250;7.456;2022-12-11T06:55:34;4.81;64.40
22917;DHT22;11624;53.250;7.456;2022-12-11T06:58:02;4.89;64.24
22917;DHT22;11624;53.250;7.456;2022-12-11T07:00:33;4.96;64.06
22917;DHT22;11624;53.250;7.456;2022-12-11T07:03:02;5.02;64.05
22917;DHT22;11624;53.250;7.456;2022-12-11T07:05:31;5.08;63.97
22917;DHT22;11624;53.250;7.456;2022-12-11T07:07:59;5.02;63.82
22917;DHT22;11624;53.250;7.456;2022-12-11T07:10:27;5.03;64.09
22917;DHT22;11624;53.250;7.456;2022-12-11T07:12:55;5.01;63.79
22917;DHT22;11624;53.250;7.456;2022-12-11T07:15:23;4.94;64.24
22917;DHT22;11624;53.250;7.456;2022-12-11T07:17:53;4.93;64.05
22917;DHT22;11624;53.250;7.456;2022-12-11T07:20:21;4.93;64.27
22917;DHT22;11624;53.250;7.456;2022-12-11T07:22:49;4.90;64.51
22917;DHT22;11624;53.250;7.456;2022-12-11T07:25:17;4.96;64.20
22917;DHT22;11624;53.250;7.456;2022-12-11T07:27:45;5.05;64.01
22917;DHT22;11624;53.250;7.456;2022-12-11T07:30:13;5.12;63.90
22917;DHT22;11624;53.250;7.456;2022-12-11T07:32:41;5.18;63.76
22917;DHT22;11624;53.250;7.456;2022-12-11T07:35:11;5.17;63.76
22917;DHT22;11624;53.250;7.456;2022-12-11T07:37:39;5.13;63.78
22917;DHT22;11624;53.250;7.456;2022-12-11T07:40:09;5.11;63.73
22917;DHT22;11624;53.250;7.456;2022-12-11T07:42:37;5.07;63.85
22917;DHT22;11624;53.250;7.456;2022-12-11T07:45:12;5.03;64.15
22917;DHT22;11624;53.250;7.456;2022-12-11T07:47:40;5.00;64.11
22917;DHT22;11624;53.250;7.456;2022-12-11T07:50:09;4.92;64.23
22917;DHT22;11624;53.250;7.456;2022-12-11T07:52:38;4.86;64.32
22917;DHT22;11624;53.250;7.456;2022-12-11T07:55:07;4.92;64.37
22917;DHT22;11624;53.250;7.456;2022-12-11T07:57:35;4.89;64.39
22917;DHT22;11624;53.250;7.456;2022-12-11T08:00:05;4.95;64.34
22917;DHT22;11624;53.250;7.456;2022-12-11T08:02:38;4.98;64.25
22917;DHT22;11624;53.250;7.456;2022-12-11T08:05:07;5.01;64.21
22917;DHT22;11624;53.250;7.456;2022-12-11T08:07:35;4.96;64.39
22917;DHT22;11624;53.250;7.456;2022-12-11T08:10:06;5.03;64.18
22917;DHT22;11624;53.250;7.456;2022-12-11T08:12:34;5.11;64.12
22917;DHT22;11624;53.250;7.456;2022-12-11T08:15:03;5.05;64.08
22917;DHT22;11624;53.250;7.456;2022-12-11T08:17:31;4.92;64.23
22917;DHT22;11624;53.250;7.456;2022-12-11T08:20:06;4.98;64.33
22917;DHT22;11624;53.250;7.456;2022-12-11T08:22:35;4.91;64.56
22917;DHT22;11624;53.250;7.456;2022-12-11T08:25:03;4.80;64.59
22917;DHT22;11624;53.250;7.456;2022-12-11T08:27:33;4.91;64.58
22917;DHT22;11624;53.250;7.456;2022-12-11T08:30:01;4.83;64.39
22917;DHT22;11624;53.250;7.456;2022-12-11T08:32:29;4.87;64.87
22917;DHT22;11624;53.250;7.456;2022-12-11T08:34:57;4.87;64.95
22917;DHT22;11624;53.250;7.456;2022-12-11T08:37:25;5.04;64.24
22917;DHT22;11624;53.250;7.456;2022-12-11T08:39:55;5.12;64.37
22917;DHT22;11624;53.250;7.456;2022-12-11T08:42:23;5.13;63.94
22917;DHT22;11624;53.250;7.456;2022-12-11T08:44:52;5.22;64.08
22917;DHT22;11624;53.250;7.456;2022-12-11T08:47:20;5.22;64.05
22917;DHT22;11624;53.250;7.456;2022-12-11T08:49:48;5.28;63.95
22917;DHT22;11624;53.250;7.456;2022-12-11T08:52:16;5.36;63.70
22917;DHT22;11624;53.250;7.456;2022-12-11T08:54:44;5.37;63.63
22917;DHT22;11624;53.250;7.456;2022-12-11T08:57:12;5.38;63.64
22917;DHT22;11624;53.250;7.456;2022-12-11T08:59:40;5.21;63.79
22917;DHT22;11624;53.250;7.456;2022-12-11T09:02:10;5.22;63.98
22917;DHT22;11624;53.250;7.456;2022-12-11T09:04:39;5.19;63.89
22917;DHT22;11624;53.250;7.456;2022-12-11T09:07:07;5.10;64.06
22917;DHT22;11624;53.250;7.456;2022-12-11T09:09:35;4.69;65.27
22917;DHT22;11624;53.250;7.456;2022-12-11T09:12:04;5.03;64.19
22917;DHT22;11624;53.250;7.456;2022-12-11T09:14:32;5.16;63.96
22917;DHT22;11624;53.250;7.456;2022-12-11T09:17:02;5.13;64.14
22917;DHT22;11624;53.250;7.456;2022-12-11T09:19:32;5.04;64.08
22917;DHT22;11624;53.250;7.456;2022-12-11T09:22:00;5.08;63.86
22917;DHT22;11624;53.250;7.456;2022-12-11T09:24:28;5.01;63.92
22917;DHT22;11624;53.250;7.456;2022-12-11T09:26:56;5.16;63.66
22917;DHT22;11624;53.250;7.456;2022-12-11T09:29:24;5.26;63.47
22917;DHT22;11624;53.250;7.456;2022-12-11T09:31:52;5.26;63.35
22917;DHT22;11624;53.250;7.456;2022-12-11T09:34:20;5.24;63.46
22917;DHT22;11624;53.250;7.456;2022-12-11T09:36:56;5.17;63.70
22917;DHT22;11624;53.250;7.456;2022-12-11T09:39:25;5.21;63.07
22917;DHT22;11624;53.250;7.456;2022-12-11T09:41:57;5.18;63.36
22917;DHT22;11624;53.250;7.456;2022-12-11T09:44:34;5.13;63.69
22917;DHT22;11624;53.250;7.456;2022-12-11T09:47:18;5.17;62.92
22917;DHT22;11624;53.250;7.456;2022-12-11T09:49:49;5.21;63.73
22917;DHT22;11624;53.250;7.456;2022-12-11T09:52:25;5.21;63.17
22917;DHT22;11624;53.250;7.456;2022-12-11T09:54:57;5.19;63.66
22917;DHT22;11624;53.250;7.456;2022-12-11T09:57:32;5.28;63.60
22917;DHT22;11624;53.250;7.456;2022-12-11T10:00:13;5.41;63.15
22917;DHT22;11624;53.250;7.456;2022-12-11T10:05:37;5.53;62.74
22917;DHT22;11624;53.250;7.456;2022-12-11T10:08:14;5.24;63.07
22917;DHT22;11624;53.250;7.456;2022-12-11T10:10:47;5.42;63.04
22917;DHT22;11624;53.250;7.456;2022-12-11T10:13:26;5.43;63.21
22917;DHT22;11624;53.250;7.456;2022-12-11T10:15:59;5.57;63.08
22917;DHT22;11624;53.250;7.456;2022-12-11T10:18:31;5.62;62.87
22917;DHT22;11624;53.250;7.456;2022-12-11T10:21:01;5.67;62.80
22917;DHT22;11624;53.250;7.456;2022-12-11T10:23:35;5.60;62.78
22917;DHT22;11624;53.250;7.456;2022-12-11T10:26:08;5.48;63.24
22917;DHT22;11624;53.250;7.456;2022-12-11T10:28:38;5.45;63.19
22917;DHT22;11624;53.250;7.456;2022-12-11T10:31:13;5.31;62.70
22917;DHT22;11624;53.250;7.456;2022-12-11T10:33:52;5.35;63.28
22917;DHT22;11624;53.250;7.456;2022-12-11T10:36:26;5.45;62.31
22917;DHT22;11624;53.250;7.456;2022-12-11T10:38:57;5.48;62.87
22917;DHT22;11624;53.250;7.456;2022-12-11T10:41:34;5.54;62.86
22917;DHT22;11624;53.250;7.456;2022-12-11T10:44:14;5.45;62.98
22917;DHT22;11624;53.250;7.456;2022-12-11T10:46:43;5.41;63.42
22917;DHT22;11624;53.250;7.456;2022-12-11T10:49:24;5.34;63.05
22917;DHT22;11624;53.250;7.456;2022-12-11T10:51:53;5.47;63.16
22917;DHT22;11624;53.250;7.456;2022-12-11T10:54:31;5.46;62.70
22917;DHT22;11624;53.250;7.456;2022-12-11T10:57:01;5.45;63.42
22917;DHT22;11624;53.250;7.456;2022-12-11T10:59:34;5.41;63.49
22917;DHT22;11624;53.250;7.456;2022-12-11T11:02:05;5.28;63.92
22917;DHT22;11624;53.250;7.456;2022-12-11T11:04:36;5.50;63.28
22917;DHT22;11624;53.250;7.456;2022-12-11T11:07:12;5.50;62.77
22917;DHT22;11624;53.250;7.456;2022-12-11T11:09:42;5.51;62.95
22917;DHT22;11624;53.250;7.456;2022-12-11T11:12:22;5.52;62.93
22917;DHT22;11624;53.250;7.456;2022-12-11T11:14:59;5.48;63.03
22917;DHT22;11624;53.250;7.456;2022-12-11T11:17:29;5.28;63.83
22917;DHT22;11624;53.250;7.456;2022-12-11T11:20:11;5.02;64.15
22917;DHT22;11624;53.250;7.456;2022-12-11T11:22:41;5.34;63.67
22917;DHT22;11624;53.250;7.456;2022-12-11T11:25:17;5.33;63.73
22917;DHT22;11624;53.250;7.456;2022-12-11T11:27:51;5.46;63.36
22917;DHT22;11624;53.250;7.456;2022-12-11T11:30:22;5.41;63.63
22917;DHT22;11624;53.250;7.456;2022-12-11T11:32:53;5.43;63.51
22917;DHT22;11624;53.250;7.456;2022-12-11T11:35:24;5.54;63.21
22917;DHT22;11624;53.250;7.456;2022-12-11T11:37:57;5.57;63.08
22917;DHT22;11624;53.250;7.456;2022-12-11T11:40:30;5.26;63.56
22917;DHT22;11624;53.250;7.456;2022-12-11T11:43:06;5.16;64.11
22917;DHT22;11624;53.250;7.456;2022-12-11T11:45:39;5.25;63.58
22917;DHT22;11624;53.250;7.456;2022-12-11T11:48:19;5.26;64.00
22917;DHT22;11624;53.250;7.456;2022-12-11T11:50:51;5.18;63.72
22917;DHT22;11624;53.250;7.456;2022-12-11T11:53:24;5.33;63.60
22917;DHT22;11624;53.250;7.456;2022-12-11T11:56:04;5.23;63.73
22917;DHT22;11624;53.250;7.456;2022-12-11T11:58:38;5.23;63.87
22917;DHT22;11624;53.250;7.456;2022-12-11T12:01:13;5.15;64.13
22917;DHT22;11624;53.250;7.456;2022-12-11T12:03:42;5.25;63.92
22917;DHT22;11624;53.250;7.456;2022-12-11T12:06:15;5.18;63.67
22917;DHT22;11624;53.250;7.456;2022-12-11T12:08:54;5.45;63.16
22917;DHT22;11624;53.250;7.456;2022-12-11T12:11:31;5.33;63.10
22917;DHT22;11624;53.250;7.456;2022-12-11T12:14:08;5.32;63.37
22917;DHT22;11624;53.250;7.456;2022-12-11T12:17:05;5.43;63.51
22917;DHT22;11624;53.250;7.456;2022-12-11T12:19:45;5.41;62.71
22917;DHT22;11624;53.250;7.456;2022-12-11T12:22:31;5.52;62.53
22917;DHT22;11624;53.250;7.456;2022-12-11T12:25:09;5.69;62.47
22917;DHT22;11624;53.250;7.456;2022-12-11T12:27:46;5.56;62.97
22917;DHT22;11624;53.250;7.456;2022-12-11T12:30:19;5.74;62.65
22917;DHT22;11624;53.250;7.456;2022-12-11T12:33:06;5.63;62.24
22917;DHT22;11624;53.250;7.456;2022-12-11T12:35:47;5.42;62.76
22917;DHT22;11624;53.250;7.456;2022-12-11T12:38:22;5.59;62.80
22917;DHT22;11624;53.250;7.456;2022-12-11T12:40:56;5.55;62.50
22917;DHT22;11624;53.250;7.456;2022-12-11T12:43:46;5.31;63.37
22917;DHT22;11624;53.250;7.456;2022-12-11T12:46:25;5.51;63.08
22917;DHT22;11624;53.250;7.456;2022-12-11T12:48:57;5.45;63.56
22917;DHT22;11624;53.250;7.456;2022-12-11T12:51:26;5.48;63.42
22917;DHT22;11624;53.250;7.456;2022-12-11T12:53:57;5.50;63.06
22917;DHT22;11624;53.250;7.456;2022-12-11T12:56:26;5.72;62.82
22917;DHT22;11624;53.250;7.456;2022-12-11T12:58:57;5.51;63.25
22917;DHT22;11624;53.250;7.456;2022-12-11T13:01:26;5.55;63.22
22917;DHT22;11624;53.250;7.456;2022-12-11T13:03:57;5.52;62.82
22917;DHT22;11624;53.250;7.456;2022-12-11T13:06:33;5.59;63.02
22917;DHT22;11624;53.250;7.456;2022-12-11T13:09:16;5.62;62.79
22917;DHT22;11624;53.250;7.456;2022-12-11T13:11:45;5.66;62.73
22917;DHT22;11624;53.250;7.456;2022-12-11T13:14:26;5.77;62.12
22917;DHT22;11624;53.250;7.456;2022-12-11T13:17:24;5.57;62.48
22917;DHT22;11624;53.250;7.456;2022-12-11T13:20:13;5.47;62.87
22917;DHT22;11624;53.250;7.456;2022-12-11T13:22:51;5.42;63.23
22917;DHT22;11624;53.250;7.456;2022-12-11T13:25:23;5.49;63.19
22917;DHT22;11624;53.250;7.456;2022-12-11T13:27:52;5.28;63.42
22917;DHT22;11624;53.250;7.456;2022-12-11T13:30:32;5.51;63.11
22917;DHT22;11624;53.250;7.456;2022-12-11T13:33:03;5.53;62.98
22917;DHT22;11624;53.250;7.456;2022-12-11T13:35:33;5.31;63.67
22917;DHT22;11624;53.250;7.456;2022-12-11T13:38:06;5.50;62.66
22917;DHT22;11624;53.250;7.456;2022-12-11T13:40:38;5.46;62.68
22917;DHT22;11624;53.250;7.456;2022-12-11T13:43:15;5.50;62.91
22917;DHT22;11624;53.250;7.456;2022-12-11T13:45:49;5.52;62.56
22917;DHT22;11624;53.250;7.456;2022-12-11T13:48:22;5.52;62.50
22917;DHT22;11624;53.250;7.456;2022-12-11T13:50:52;5.31;63.26
22917;DHT22;11624;53.250;7.456;2022-12-11T13:53:21;5.20;63.75
22917;DHT22;11624;53.250;7.456;2022-12-11T13:55:56;5.47;63.02
22917;DHT22;11624;53.250;7.456;2022-12-11T13:58:25;5.55;62.89
22917;DHT22;11624;53.250;7.456;2022-12-11T14:01:04;5.36;62.79
22917;DHT22;11624;53.250;7.456;2022-12-11T14:03:34;5.25;63.99
22917;DHT22;11624;53.250;7.456;2022-12-11T14:06:02;5.40;63.49
22917;DHT22;11624;53.250;7.456;2022-12-11T14:08:33;5.51;63.18
22917;DHT22;11624;53.250;7.456;2022-12-11T14:11:03;5.47;63.18
22917;DHT22;11624;53.250;7.456;2022-12-11T14:13:34;5.40;63.23
22917;DHT22;11624;53.250;7.456;2022-12-11T14:16:05;5.41;63.39
22917;DHT22;11624;53.250;7.456;2022-12-11T14:18:35;5.47;62.99
22917;DHT22;11624;53.250;7.456;2022-12-11T14:21:05;5.50;63.11
22917;DHT22;11624;53.250;7.456;2022-12-11T14:23:34;5.48;62.96
22917;DHT22;11624;53.250;7.456;2022-12-11T14:26:13;5.25;63.59
22917;DHT22;11624;53.250;7.456;2022-12-11T14:28:43;5.27;63.89
22917;DHT22;11624;53.250;7.456;2022-12-11T14:31:14;5.17;63.96
22917;DHT22;11624;53.250;7.456;2022-12-11T14:33:46;5.26;63.74
22917;DHT22;11624;53.250;7.456;2022-12-11T14:36:17;5.09;64.09
22917;DHT22;11624;53.250;7.456;2022-12-11T14:38:48;5.08;64.37
22917;DHT22;11624;53.250;7.456;2022-12-11T14:41:22;5.16;64.18
22917;DHT22;11624;53.250;7.456;2022-12-11T14:43:54;5.22;63.92
22917;DHT22;11624;53.250;7.456;2022-12-11T14:46:31;5.35;63.57
22917;DHT22;11624;53.250;7.456;2022-12-11T14:49:05;5.11;64.63
22917;DHT22;11624;53.250;7.456;2022-12-11T14:51:39;5.04;64.49
22917;DHT22;11624;53.250;7.456;2022-12-11T14:54:15;5.12;64.18
22917;DHT22;11624;53.250;7.456;2022-12-11T14:56:46;5.36;63.69
22917;DHT22;11624;53.250;7.456;2022-12-11T14:59:18;5.26;63.58
22917;DHT22;11624;53.250;7.456;2022-12-11T15:02:00;5.22;64.21
22917;DHT22;11624;53.250;7.456;2022-12-11T15:04:31;5.25;63.73
22917;DHT22;11624;53.250;7.456;2022-12-11T15:07:00;5.42;63.64
22917;DHT22;11624;53.250;7.456;2022-12-11T15:09:35;5.61;62.90
22917;DHT22;11624;53.250;7.456;2022-12-11T15:12:10;5.72;62.81
22917;DHT22;11624;53.250;7.456;2022-12-11T15:14:43;5.74;62.64
22917;DHT22;11624;53.250;7.456;2022-12-11T15:17:16;5.55;63.09
22917;DHT22;11624;53.250;7.456;2022-12-11T15:19:46;5.53;62.92
22917;DHT22;11624;53.250;7.456;2022-12-11T15:22:17;5.22;63.64
22917;DHT22;11624;53.250;7.456;2022-12-11T15:24:49;5.28;63.63
22917;DHT22;11624;53.250;7.456;2022-12-11T15:27:23;5.38;63.17
22917;DHT22;11624;53.250;7.456;2022-12-11T15:29:52;5.30;63.75
22917;DHT22;11624;53.250;7.456;2022-12-11T15:32:23;5.38;63.21
22917;DHT22;11624;53.250;7.456;2022-12-11T15:34:53;5.47;63.18
22917;DHT22;11624;53.250;7.456;2022-12-11T15:37:23;5.51;62.98
22917;DHT22;11624;53.250;7.456;2022-12-11T15:39:52;5.42;63.18
22917;DHT22;11624;53.250;7.456;2022-12-11T15:42:26;5.33;63.60
22917;DHT22;11624;53.250;7.456;2022-12-11T15:44:56;5.42;63.45
22917;DHT22;11624;53.250;7.456;2022-12-11T15:47:27;5.49;62.85
22917;DHT22;11624;53.250;7.456;2022-12-11T15:49:57;5.45;63.28
22917;DHT22;11624;53.250;7.456;2022-12-11T15:52:26;5.47;62.94
22917;DHT22;11624;53.250;7.456;2022-12-11T15:54:54;5.32;63.44
22917;DHT22;11624;53.250;7.456;2022-12-11T15:57:23;5.39;63.41
22917;DHT22;11624;53.250;7.456;2022-12-11T15:59:53;5.40;63.07
22917;DHT22;11624;53.250;7.456;2022-12-11T16:02:21;5.28;63.32
22917;DHT22;11624;53.250;7.456;2022-12-11T16:04:56;5.17;64.15
22917;DHT22;11624;53.250;7.456;2022-12-11T16:07:25;5.20;63.57
22917;DHT22;11624;53.250;7.456;2022-12-11T16:09:53;5.11;64.15
22917;DHT22;11624;53.250;7.456;2022-12-11T16:12:21;5.19;63.50
22917;DHT22;11624;53.250;7.456;2022-12-11T16:14:49;5.19;63.75